Aviation weather information 2021-10-22 04:34 UTC

TAF(FCEO32)
FCEO32 EETN 220300
TAF EEKA 220300Z 2204/2210 26018G28KT 9999 SCT025=
FCEO32 EETN 220300
TAF EEKE 220300Z 2204/2210 27017G30KT 9999 SCT030 PROB40 TEMPO
     2204/2210 SCT015CB BKN020=

TAF(FTEO31)
FTEO31 EETN 212300
TAF EETN 212323Z 2200/2224 23018G30KT 9999 BKN015 TEMPO
     2200/2205 26025G45KT 3000 SHRA BKN007 BKN015CB TEMPO 2209/2215
     27025G35KT BECMG 2218/2220 23012KT TEMPO 2221/2224 4000 RA
     BKN010 OVC018=

TAF(FTEO33)
FTEO33 EEEI 212300
TAF EEEI 212300Z 2200/2224 24015G25KT 9999 SCT015 BKN025 TEMPO
     2200/2202 3000 SHRA BKN007 SCT025TCU TEMPO 2200/2212 27025G35KT
     BECMG 2220/2222 30014KT= 

Weather observation (METAR/SPECI)
METAR EETN 220420Z 25020G32KT 9999 OVC032 07/02 Q0974 NOSIG=
SPECI EEEI 220403Z 25020G30KT 9999 BKN036 07/02 Q0975=
METAR EETU 220420Z AUTO 23017KT 9999 -RA FEW030/// SCT053///
BKN068/// 05/02 Q0980 RERA=
METAR EEPU 220420Z NIL=
METAR EEKE 220420Z 26012G25KT 220V310 9999 FEW032 SCT046 08/02
Q0981=
METAR EEKA 220420Z 25011KT 210V300 9999 BKN033 07/01 Q0978=